sensor_id;sensor_type;location;lat;lon;timestamp;pressure;altitude;pressure_sealevel;temperature;humidity
43488;BME280;29078;41.932;25.554;2023-06-14T00:01:16;99173.22;;;22.96;53.87
43488;BME280;29078;41.932;25.554;2023-06-14T00:03:42;99172.94;;;22.97;53.94
43488;BME280;29078;41.932;25.554;2023-06-14T00:06:07;99113.66;;;22.51;53.87
43488;BME280;29078;41.932;25.554;2023-06-14T00:08:33;99175.38;;;22.99;54.00
43488;BME280;29078;41.932;25.554;2023-06-14T00:10:58;99179.41;;;22.96;53.85
43488;BME280;29078;41.932;25.554;2023-06-14T00:13:24;99170.53;;;22.96;53.76
43488;BME280;29078;41.932;25.554;2023-06-14T00:15:50;99116.06;;;22.48;54.08
43488;BME280;29078;41.932;25.554;2023-06-14T00:18:18;99099.66;;;22.55;54.04
43488;BME280;29078;41.932;25.554;2023-06-14T00:20:43;99161.91;;;22.94;53.98
43488;BME280;29078;41.932;25.554;2023-06-14T00:23:09;99115.78;;;22.49;54.49
43488;BME280;29078;41.932;25.554;2023-06-14T00:25:35;99104.75;;;22.46;54.55
43488;BME280;29078;41.932;25.554;2023-06-14T00:30:45;99121.72;;;22.57;55.00
43488;BME280;29078;41.932;25.554;2023-06-14T00:33:11;99139.75;;;22.61;55.13
43488;BME280;29078;41.932;25.554;2023-06-14T00:35:37;99118.19;;;22.46;55.21
43488;BME280;29078;41.932;25.554;2023-06-14T00:38:02;99078.59;;;22.26;55.39
43488;BME280;29078;41.932;25.554;2023-06-14T00:40:28;99100.44;;;22.40;55.63
43488;BME280;29078;41.932;25.554;2023-06-14T00:42:53;99144.63;;;22.69;55.48
43488;BME280;29078;41.932;25.554;2023-06-14T00:45:18;99154.56;;;22.74;55.65
43488;BME280;29078;41.932;25.554;2023-06-14T00:47:45;99154.84;;;22.72;55.72
43488;BME280;29078;41.932;25.554;2023-06-14T00:50:11;99115.50;;;22.46;55.91
43488;BME280;29078;41.932;25.554;2023-06-14T00:52:37;99150.00;;;22.74;55.94
43488;BME280;29078;41.932;25.554;2023-06-14T00:55:03;99155.38;;;22.69;56.06
43488;BME280;29078;41.932;25.554;2023-06-14T00:57:29;99131.66;;;22.46;56.44
43488;BME280;29078;41.932;25.554;2023-06-14T00:59:55;99143.53;;;22.60;56.20
43488;BME280;29078;41.932;25.554;2023-06-14T01:02:21;99154.28;;;22.60;56.49
43488;BME280;29078;41.932;25.554;2023-06-14T01:04:47;99153.19;;;22.56;56.74
43488;BME280;29078;41.932;25.554;2023-06-14T01:13:08;99151.00;;;22.33;57.43
43488;BME280;29078;41.932;25.554;2023-06-14T01:15:37;98769.16;;;19.89;57.57
43488;BME280;29078;41.932;25.554;2023-06-14T01:18:04;99118.91;;;22.16;57.65
43488;BME280;29078;41.932;25.554;2023-06-14T01:20:32;99127.50;;;22.13;57.81
43488;BME280;29078;41.932;25.554;2023-06-14T01:22:58;99088.91;;;21.87;57.87
43488;BME280;29078;41.932;25.554;2023-06-14T01:25:24;99159.00;;;22.28;58.07
43488;BME280;29078;41.932;25.554;2023-06-14T01:27:53;99154.22;;;22.30;57.96
43488;BME280;29078;41.932;25.554;2023-06-14T01:30:21;99141.31;;;22.32;57.91
43488;BME280;29078;41.932;25.554;2023-06-14T01:32:49;99093.25;;;21.98;58.17
43488;BME280;29078;41.932;25.554;2023-06-14T01:35:15;99147.50;;;22.32;58.18
43488;BME280;29078;41.932;25.554;2023-06-14T01:37:42;99148.28;;;22.33;58.07
43488;BME280;29078;41.932;25.554;2023-06-14T01:40:09;99150.94;;;22.28;58.39
43488;BME280;29078;41.932;25.554;2023-06-14T01:42:37;99094.53;;;21.80;58.59
43488;BME280;29078;41.932;25.554;2023-06-14T01:45:05;99146.59;;;22.16;58.70
43488;BME280;29078;41.932;25.554;2023-06-14T01:47:34;99023.09;;;21.32;58.81
43488;BME280;29078;41.932;25.554;2023-06-14T01:50:02;99054.09;;;21.55;58.97
43488;BME280;29078;41.932;25.554;2023-06-14T01:52:27;99048.94;;;21.48;59.10
43488;BME280;29078;41.932;25.554;2023-06-14T01:54:53;99092.34;;;21.72;59.22
43488;BME280;29078;41.932;25.554;2023-06-14T01:57:19;99135.72;;;21.96;59.38
43488;BME280;29078;41.932;25.554;2023-06-14T01:59:46;99076.19;;;21.62;59.48
43488;BME280;29078;41.932;25.554;2023-06-14T02:02:14;99131.44;;;22.00;59.53
43488;BME280;29078;41.932;25.554;2023-06-14T02:04:40;99058.38;;;21.51;59.57
43488;BME280;29078;41.932;25.554;2023-06-14T02:07:05;99099.63;;;21.77;59.74
43488;BME280;29078;41.932;25.554;2023-06-14T02:09:31;99079.69;;;21.63;59.68
43488;BME280;29078;41.932;25.554;2023-06-14T02:11:56;99103.94;;;21.78;59.93
43488;BME280;29078;41.932;25.554;2023-06-14T02:14:21;99130.88;;;21.93;60.02
43488;BME280;29078;41.932;25.554;2023-06-14T02:16:48;99135.16;;;21.89;60.12
43488;BME280;29078;41.932;25.554;2023-06-14T02:19:18;99138.97;;;21.98;59.96
43488;BME280;29078;41.932;25.554;2023-06-14T02:21:44;99137.59;;;21.96;60.14
43488;BME280;29078;41.932;25.554;2023-06-14T02:24:10;99126.28;;;21.88;60.04
43488;BME280;29078;41.932;25.554;2023-06-14T02:26:36;99074.78;;;21.54;59.98
43488;BME280;29078;41.932;25.554;2023-06-14T02:29:04;99147.56;;;22.00;60.02
43488;BME280;29078;41.932;25.554;2023-06-14T02:31:33;99098.22;;;21.64;60.01
43488;BME280;29078;41.932;25.554;2023-06-14T02:33:59;99138.91;;;21.88;60.32
43488;BME280;29078;41.932;25.554;2023-06-14T02:36:24;99131.63;;;21.83;60.34
43488;BME280;29078;41.932;25.554;2023-06-14T02:38:50;99145.13;;;21.94;60.20
43488;BME280;29078;41.932;25.554;2023-06-14T02:41:15;99155.34;;;21.92;60.23
43488;BME280;29078;41.932;25.554;2023-06-14T02:43:40;99131.34;;;21.80;60.20
43488;BME280;29078;41.932;25.554;2023-06-14T02:46:06;99090.56;;;21.46;60.24
43488;BME280;29078;41.932;25.554;2023-06-14T02:48:32;99090.31;;;21.47;60.30
43488;BME280;29078;41.932;25.554;2023-06-14T02:50:57;99091.09;;;21.43;60.26
43488;BME280;29078;41.932;25.554;2023-06-14T02:53:23;99140.13;;;21.60;60.43
43488;BME280;29078;41.932;25.554;2023-06-14T02:55:48;99163.22;;;21.61;60.76
43488;BME280;29078;41.932;25.554;2023-06-14T02:58:14;99167.25;;;21.59;60.77
43488;BME280;29078;41.932;25.554;2023-06-14T03:00:39;99163.75;;;21.58;60.90
43488;BME280;29078;41.932;25.554;2023-06-14T03:03:07;99156.13;;;21.50;61.03
43488;BME280;29078;41.932;25.554;2023-06-14T03:05:43;99136.91;;;21.26;61.03
43488;BME280;29078;41.932;25.554;2023-06-14T03:08:11;99177.66;;;21.55;61.12
43488;BME280;29078;41.932;25.554;2023-06-14T03:10:45;99184.63;;;21.51;61.31
43488;BME280;29078;41.932;25.554;2023-06-14T03:13:11;99101.69;;;20.90;61.30
43488;BME280;29078;41.932;25.554;2023-06-14T03:15:37;99101.16;;;20.88;61.27
43488;BME280;29078;41.932;25.554;2023-06-14T03:18:03;99187.53;;;21.44;61.51
43488;BME280;29078;41.932;25.554;2023-06-14T03:20:29;99108.69;;;20.91;61.44
43488;BME280;29078;41.932;25.554;2023-06-14T03:22:59;99185.66;;;21.45;61.48
43488;BME280;29078;41.932;25.554;2023-06-14T03:25:24;99144.31;;;21.14;61.48
43488;BME280;29078;41.932;25.554;2023-06-14T03:27:51;99157.31;;;21.27;61.39
43488;BME280;29078;41.932;25.554;2023-06-14T03:30:16;99194.03;;;21.53;61.45
43488;BME280;29078;41.932;25.554;2023-06-14T03:32:41;99131.91;;;21.08;61.30
43488;BME280;29078;41.932;25.554;2023-06-14T03:35:07;99172.97;;;21.35;61.47
43488;BME280;29078;41.932;25.554;2023-06-14T03:37:33;99130.91;;;21.19;61.42
43488;BME280;29078;41.932;25.554;2023-06-14T03:39:58;99190.00;;;21.51;61.23
43488;BME280;29078;41.932;25.554;2023-06-14T03:42:23;99129.44;;;21.01;61.38
43488;BME280;29078;41.932;25.554;2023-06-14T03:44:49;99153.00;;;21.26;61.42
43488;BME280;29078;41.932;25.554;2023-06-14T03:47:14;99196.72;;;21.53;61.20
43488;BME280;29078;41.932;25.554;2023-06-14T03:49:40;99203.22;;;21.58;61.30
43488;BME280;29078;41.932;25.554;2023-06-14T03:52:06;99119.03;;;21.10;61.09
43488;BME280;29078;41.932;25.554;2023-06-14T03:54:31;99152.78;;;21.33;61.23
43488;BME280;29078;41.932;25.554;2023-06-14T03:56:58;99204.88;;;21.64;61.16
43488;BME280;29078;41.932;25.554;2023-06-14T03:59:24;99134.66;;;21.18;61.29
43488;BME280;29078;41.932;25.554;2023-06-14T04:01:49;99172.22;;;21.45;61.50
43488;BME280;29078;41.932;25.554;2023-06-14T04:04:14;99156.28;;;21.33;61.39
43488;BME280;29078;41.932;25.554;2023-06-14T04:06:41;99154.63;;;21.27;61.36
43488;BME280;29078;41.932;25.554;2023-06-14T04:09:08;99217.72;;;21.56;61.42
43488;BME280;29078;41.932;25.554;2023-06-14T04:11:33;99199.34;;;21.43;61.58
43488;BME280;29078;41.932;25.554;2023-06-14T04:13:59;99223.28;;;21.50;61.59
43488;BME280;29078;41.932;25.554;2023-06-14T04:16:24;99172.22;;;21.13;61.71
43488;BME280;29078;41.932;25.554;2023-06-14T04:18:50;99147.94;;;20.98;61.85
43488;BME280;29078;41.932;25.554;2023-06-14T04:21:18;99095.84;;;20.67;61.76
43488;BME280;29078;41.932;25.554;2023-06-14T04:23:43;99210.84;;;21.39;61.81
43488;BME280;29078;41.932;25.554;2023-06-14T04:26:09;99209.19;;;21.33;61.72
43488;BME280;29078;41.932;25.554;2023-06-14T04:28:35;99226.50;;;21.47;61.96
43488;BME280;29078;41.932;25.554;2023-06-14T04:31:06;99231.09;;;21.51;61.80
43488;BME280;29078;41.932;25.554;2023-06-14T04:33:35;99166.53;;;21.09;61.71
43488;BME280;29078;41.932;25.554;2023-06-14T04:36:09;99213.56;;;21.44;61.64
43488;BME280;29078;41.932;25.554;2023-06-14T04:38:37;99216.72;;;21.36;61.63
43488;BME280;29078;41.932;25.554;2023-06-14T04:41:02;99244.28;;;21.53;61.63
43488;BME280;29078;41.932;25.554;2023-06-14T04:43:27;99166.47;;;20.99;61.80
43488;BME280;29078;41.932;25.554;2023-06-14T04:45:53;99184.59;;;21.19;61.86
43488;BME280;29078;41.932;25.554;2023-06-14T04:48:20;99214.25;;;21.29;61.92
43488;BME280;29078;41.932;25.554;2023-06-14T04:50:46;99207.53;;;21.27;61.82
43488;BME280;29078;41.932;25.554;2023-06-14T04:53:11;99254.34;;;21.68;61.78
43488;BME280;29078;41.932;25.554;2023-06-14T04:55:37;99252.25;;;21.75;61.72
43488;BME280;29078;41.932;25.554;2023-06-14T04:58:03;99242.03;;;21.72;61.55
43488;BME280;29078;41.932;25.554;2023-06-14T05:00:30;99264.72;;;21.91;61.27
43488;BME280;29078;41.932;25.554;2023-06-14T05:02:55;99184.88;;;21.49;60.86
43488;BME280;29078;41.932;25.554;2023-06-14T05:05:22;99199.78;;;21.62;60.59
43488;BME280;29078;41.932;25.554;2023-06-14T05:08:06;99267.91;;;22.25;60.08
43488;BME280;29078;41.932;25.554;2023-06-14T05:10:32;99256.88;;;22.22;59.98
43488;BME280;29078;41.932;25.554;2023-06-14T05:13:00;99191.63;;;21.94;59.42
43488;BME280;29078;41.932;25.554;2023-06-14T05:15:25;99268.28;;;22.39;59.12
43488;BME280;29078;41.932;25.554;2023-06-14T05:17:52;99278.06;;;22.55;58.93
43488;BME280;29078;41.932;25.554;2023-06-14T05:20:21;99280.78;;;22.65;58.64
43488;BME280;29078;41.932;25.554;2023-06-14T05:22:48;99281.09;;;22.74;58.05
43488;BME280;29078;41.932;25.554;2023-06-14T05:25:15;99215.00;;;22.36;57.54
43488;BME280;29078;41.932;25.554;2023-06-14T05:27:40;99244.16;;;22.59;57.50
43488;BME280;29078;41.932;25.554;2023-06-14T05:30:07;99208.56;;;22.37;57.23
43488;BME280;29078;41.932;25.554;2023-06-14T05:32:33;99229.63;;;22.55;57.07
43488;BME280;29078;41.932;25.554;2023-06-14T05:34:59;99290.59;;;22.97;57.24
43488;BME280;29078;41.932;25.554;2023-06-14T05:37:24;99289.78;;;22.96;57.45
43488;BME280;29078;41.932;25.554;2023-06-14T05:39:50;99264.13;;;22.73;57.48
43488;BME280;29078;41.932;25.554;2023-06-14T05:42:15;99222.09;;;22.57;57.47
43488;BME280;29078;41.932;25.554;2023-06-14T05:44:41;99292.81;;;23.10;57.35
43488;BME280;29078;41.932;25.554;2023-06-14T05:47:06;99263.66;;;22.92;57.06
43488;BME280;29078;41.932;25.554;2023-06-14T05:49:31;99259.06;;;22.82;56.96
43488;BME280;29078;41.932;25.554;2023-06-14T05:51:57;99281.72;;;22.96;56.55
43488;BME280;29078;41.932;25.554;2023-06-14T05:54:22;99295.78;;;23.13;56.92
43488;BME280;29078;41.932;25.554;2023-06-14T05:56:47;99209.72;;;22.61;56.75
43488;BME280;29078;41.932;25.554;2023-06-14T05:59:13;99316.84;;;23.27;56.86
43488;BME280;29078;41.932;25.554;2023-06-14T06:01:38;99247.81;;;23.00;56.42
43488;BME280;29078;41.932;25.554;2023-06-14T06:04:05;99217.56;;;22.78;56.43
43488;BME280;29078;41.932;25.554;2023-06-14T06:06:31;99237.28;;;22.94;56.16
43488;BME280;29078;41.932;25.554;2023-06-14T06:08:57;99259.97;;;23.13;56.19
43488;BME280;29078;41.932;25.554;2023-06-14T06:11:23;99309.84;;;23.46;55.99
43488;BME280;29078;41.932;25.554;2023-06-14T06:13:48;99308.78;;;23.47;56.45
43488;BME280;29078;41.932;25.554;2023-06-14T06:16:14;99305.28;;;23.52;56.71
43488;BME280;29078;41.932;25.554;2023-06-14T06:18:40;99305.28;;;23.52;56.99
43488;BME280;29078;41.932;25.554;2023-06-14T06:21:05;99320.94;;;23.55;57.03
43488;BME280;29078;41.932;25.554;2023-06-14T06:23:31;99320.09;;;23.54;56.82
43488;BME280;29078;41.932;25.554;2023-06-14T06:25:56;99254.06;;;23.21;57.08
43488;BME280;29078;41.932;25.554;2023-06-14T06:28:22;99325.53;;;23.64;57.23
43488;BME280;29078;41.932;25.554;2023-06-14T06:30:47;99262.16;;;23.31;57.07
43488;BME280;29078;41.932;25.554;2023-06-14T06:33:13;99317.97;;;23.71;57.44
43488;BME280;29078;41.932;25.554;2023-06-14T06:35:39;99325.00;;;23.77;57.46
43488;BME280;29078;41.932;25.554;2023-06-14T06:38:04;99315.06;;;23.83;57.31
43488;BME280;29078;41.932;25.554;2023-06-14T06:40:30;99315.59;;;23.80;57.26
43488;BME280;29078;41.932;25.554;2023-06-14T06:42:55;99292.66;;;23.62;57.23
43488;BME280;29078;41.932;25.554;2023-06-14T06:45:21;99276.16;;;23.54;57.44
43488;BME280;29078;41.932;25.554;2023-06-14T06:47:48;99317.75;;;23.83;57.12
43488;BME280;29078;41.932;25.554;2023-06-14T06:52:58;99270.78;;;23.49;56.60
43488;BME280;29078;41.932;25.554;2023-06-14T06:55:23;99250.84;;;23.39;56.17
43488;BME280;29078;41.932;25.554;2023-06-14T06:57:49;99229.00;;;23.31;55.29
43488;BME280;29078;41.932;25.554;2023-06-14T07:00:15;99321.50;;;23.97;54.32
43488;BME280;29078;41.932;25.554;2023-06-14T07:02:41;99266.78;;;23.66;54.37
43488;BME280;29078;41.932;25.554;2023-06-14T07:05:07;99254.09;;;23.72;53.98
43488;BME280;29078;41.932;25.554;2023-06-14T07:07:32;99319.06;;;24.11;54.22
43488;BME280;29078;41.932;25.554;2023-06-14T07:09:58;99324.97;;;24.23;53.63
43488;BME280;29078;41.932;25.554;2023-06-14T07:12:23;99228.22;;;23.61;53.54
43488;BME280;29078;41.932;25.554;2023-06-14T07:14:49;99308.00;;;24.13;52.73
43488;BME280;29078;41.932;25.554;2023-06-14T07:17:14;99321.50;;;24.28;52.61
43488;BME280;29078;41.932;25.554;2023-06-14T07:19:40;99339.03;;;24.30;52.12
43488;BME280;29078;41.932;25.554;2023-06-14T07:22:05;99311.50;;;24.18;52.25
43488;BME280;29078;41.932;25.554;2023-06-14T07:24:30;99331.72;;;24.36;52.12
43488;BME280;29078;41.932;25.554;2023-06-14T07:26:56;99251.41;;;23.92;52.60
43488;BME280;29078;41.932;25.554;2023-06-14T07:29:21;99319.28;;;24.45;52.55
43488;BME280;29078;41.932;25.554;2023-06-14T07:31:47;99285.59;;;24.17;52.66
43488;BME280;29078;41.932;25.554;2023-06-14T07:34:12;99311.25;;;24.30;52.44
43488;BME280;29078;41.932;25.554;2023-06-14T07:36:38;99323.88;;;24.50;52.42
43488;BME280;29078;41.932;25.554;2023-06-14T07:39:04;99326.84;;;24.53;52.35
43488;BME280;29078;41.932;25.554;2023-06-14T07:41:31;99321.69;;;24.52;51.62
43488;BME280;29078;41.932;25.554;2023-06-14T07:43:56;99332.78;;;24.55;51.89
43488;BME280;29078;41.932;25.554;2023-06-14T07:46:21;99333.56;;;24.66;51.79
43488;BME280;29078;41.932;25.554;2023-06-14T07:48:47;99317.59;;;24.75;50.99
43488;BME280;29078;41.932;25.554;2023-06-14T07:51:13;99315.41;;;24.82;50.94
43488;BME280;29078;41.932;25.554;2023-06-14T07:53:38;99284.13;;;24.76;50.34
43488;BME280;29078;41.932;25.554;2023-06-14T07:56:04;99269.00;;;24.75;50.05
43488;BME280;29078;41.932;25.554;2023-06-14T07:58:30;99264.13;;;24.77;49.84
43488;BME280;29078;41.932;25.554;2023-06-14T08:00:55;99322.53;;;25.27;49.22
43488;BME280;29078;41.932;25.554;2023-06-14T08:03:20;99298.56;;;25.05;49.25
43488;BME280;29078;41.932;25.554;2023-06-14T08:05:47;99339.16;;;25.44;48.83
43488;BME280;29078;41.932;25.554;2023-06-14T08:08:13;99335.31;;;25.55;48.35
43488;BME280;29078;41.932;25.554;2023-06-14T08:10:38;99344.19;;;25.66;47.97
43488;BME280;29078;41.932;25.554;2023-06-14T08:13:04;99338.72;;;25.71;47.62
43488;BME280;29078;41.932;25.554;2023-06-14T08:15:29;99274.41;;;25.24;47.95
43488;BME280;29078;41.932;25.554;2023-06-14T08:17:54;99322.28;;;25.62;47.85
43488;BME280;29078;41.932;25.554;2023-06-14T08:20:20;99214.34;;;24.98;48.29
43488;BME280;29078;41.932;25.554;2023-06-14T08:22:45;99266.47;;;25.43;48.53
43488;BME280;29078;41.932;25.554;2023-06-14T08:25:13;99298.75;;;25.63;47.91
43488;BME280;29078;41.932;25.554;2023-06-14T08:27:40;99305.69;;;25.79;47.83
43488;BME280;29078;41.932;25.554;2023-06-14T08:30:06;99335.38;;;26.18;47.67
43488;BME280;29078;41.932;25.554;2023-06-14T08:32:33;99306.59;;;25.98;47.46
43488;BME280;29078;41.932;25.554;2023-06-14T08:34:58;99274.53;;;25.82;47.43
43488;BME280;29078;41.932;25.554;2023-06-14T08:37:24;99263.31;;;25.70;47.73
43488;BME280;29078;41.932;25.554;2023-06-14T08:39:49;99329.44;;;26.16;47.74
43488;BME280;29078;41.932;25.554;2023-06-14T08:42:15;99282.81;;;25.95;47.25
43488;BME280;29078;41.932;25.554;2023-06-14T08:44:41;99295.28;;;25.91;47.22
43488;BME280;29078;41.932;25.554;2023-06-14T08:47:07;99343.06;;;26.06;47.58
43488;BME280;29078;41.932;25.554;2023-06-14T08:49:36;99355.47;;;26.12;47.68
43488;BME280;29078;41.932;25.554;2023-06-14T08:52:03;99320.63;;;26.06;47.40
43488;BME280;29078;41.932;25.554;2023-06-14T08:54:31;99363.25;;;26.48;47.04
43488;BME280;29078;41.932;25.554;2023-06-14T08:56:57;99333.41;;;26.53;46.75
43488;BME280;29078;41.932;25.554;2023-06-14T08:59:25;99322.75;;;26.62;46.53
43488;BME280;29078;41.932;25.554;2023-06-14T09:01:52;99295.91;;;26.65;45.93
43488;BME280;29078;41.932;25.554;2023-06-14T09:04:18;99308.19;;;26.81;45.51
43488;BME280;29078;41.932;25.554;2023-06-14T09:06:45;99330.75;;;27.19;45.07
43488;BME280;29078;41.932;25.554;2023-06-14T09:09:11;99347.88;;;27.34;44.29
43488;BME280;29078;41.932;25.554;2023-06-14T09:11:37;99347.81;;;27.39;44.11
43488;BME280;29078;41.932;25.554;2023-06-14T09:14:03;99343.63;;;27.46;43.87
43488;BME280;29078;41.932;25.554;2023-06-14T09:16:28;99321.38;;;27.31;43.42
43488;BME280;29078;41.932;25.554;2023-06-14T09:18:54;99319.53;;;27.26;43.80
43488;BME280;29078;41.932;25.554;2023-06-14T09:21:19;99271.25;;;27.09;43.56
43488;BME280;29078;41.932;25.554;2023-06-14T09:23:47;99282.59;;;27.30;43.40
43488;BME280;29078;41.932;25.554;2023-06-14T09:26:31;99337.16;;;27.99;43.04
43488;BME280;29078;41.932;25.554;2023-06-14T09:28:57;99334.75;;;28.30;42.69
43488;BME280;29078;41.932;25.554;2023-06-14T09:31:23;99324.72;;;28.58;42.67
43488;BME280;29078;41.932;25.554;2023-06-14T09:33:49;99311.03;;;28.63;41.38
43488;BME280;29078;41.932;25.554;2023-06-14T09:36:21;99286.25;;;28.78;40.68
43488;BME280;29078;41.932;25.554;2023-06-14T09:41:19;99249.03;;;28.92;40.79
43488;BME280;29078;41.932;25.554;2023-06-14T09:43:46;99266.22;;;29.15;40.27
43488;BME280;29078;41.932;25.554;2023-06-14T09:46:12;99297.84;;;29.47;39.72
43488;BME280;29078;41.932;25.554;2023-06-14T09:48:38;99320.91;;;29.72;39.06
43488;BME280;29078;41.932;25.554;2023-06-14T09:51:11;99313.00;;;29.84;38.59
43488;BME280;29078;41.932;25.554;2023-06-14T09:53:41;99278.91;;;29.64;38.31
43488;BME280;29078;41.932;25.554;2023-06-14T09:56:09;99308.28;;;29.98;38.07
43488;BME280;29078;41.932;25.554;2023-06-14T09:58:38;99267.28;;;29.95;37.63
43488;BME280;29078;41.932;25.554;2023-06-14T10:01:06;99281.16;;;30.07;37.11
43488;BME280;29078;41.932;25.554;2023-06-14T10:03:34;99290.69;;;30.27;37.07
43488;BME280;29078;41.932;25.554;2023-06-14T10:06:02;99272.88;;;30.21;36.63
43488;BME280;29078;41.932;25.554;2023-06-14T10:08:30;99295.63;;;30.25;36.34
43488;BME280;29078;41.932;25.554;2023-06-14T10:10:58;99294.88;;;30.33;36.57
43488;BME280;29078;41.932;25.554;2023-06-14T10:13:25;99259.81;;;29.78;36.77
43488;BME280;29078;41.932;25.554;2023-06-14T10:15:58;99307.91;;;29.69;37.11
43488;BME280;29078;41.932;25.554;2023-06-14T10:18:35;99250.50;;;29.12;37.54
43488;BME280;29078;41.932;25.554;2023-06-14T10:23:48;99236.13;;;29.56;36.77
43488;BME280;29078;41.932;25.554;2023-06-14T10:26:22;99277.34;;;30.17;36.71
43488;BME280;29078;41.932;25.554;2023-06-14T10:29:08;99283.28;;;30.58;35.67
43488;BME280;29078;41.932;25.554;2023-06-14T10:31:47;99262.34;;;30.67;35.11
43488;BME280;29078;41.932;25.554;2023-06-14T10:37:12;99248.75;;;31.02;34.74
43488;BME280;29078;41.932;25.554;2023-06-14T10:39:42;99234.78;;;31.12;34.47
43488;BME280;29078;41.932;25.554;2023-06-14T10:42:09;99240.59;;;31.19;35.25
43488;BME280;29078;41.932;25.554;2023-06-14T10:44:39;99282.94;;;31.60;34.93
43488;BME280;29078;41.932;25.554;2023-06-14T10:47:28;99283.25;;;31.84;34.01
43488;BME280;29078;41.932;25.554;2023-06-14T10:50:04;99261.09;;;31.77;34.59
43488;BME280;29078;41.932;25.554;2023-06-14T10:52:33;99274.09;;;31.98;33.56
43488;BME280;29078;41.932;25.554;2023-06-14T10:55:13;99277.00;;;31.84;33.71
43488;BME280;29078;41.932;25.554;2023-06-14T10:57:48;99273.66;;;31.44;34.55
43488;BME280;29078;41.932;25.554;2023-06-14T11:00:21;99222.03;;;30.56;35.30
43488;BME280;29078;41.932;25.554;2023-06-14T11:08:27;99273.50;;;31.23;34.21
43488;BME280;29078;41.932;25.554;2023-06-14T11:10:59;99267.53;;;31.55;33.88
43488;BME280;29078;41.932;25.554;2023-06-14T11:13:26;99268.47;;;31.85;33.19
43488;BME280;29078;41.932;25.554;2023-06-14T11:15:51;99193.69;;;31.60;33.31
43488;BME280;29078;41.932;25.554;2023-06-14T11:18:22;99241.78;;;32.00;33.37
43488;BME280;29078;41.932;25.554;2023-06-14T11:20:50;99207.31;;;31.78;33.12
43488;BME280;29078;41.932;25.554;2023-06-14T11:23:15;99224.47;;;31.87;33.52
43488;BME280;29078;41.932;25.554;2023-06-14T11:25:40;99248.69;;;32.44;33.17
43488;BME280;29078;41.932;25.554;2023-06-14T11:28:06;99183.94;;;32.36;32.89
43488;BME280;29078;41.932;25.554;2023-06-14T11:30:32;99250.59;;;33.02;32.13
43488;BME280;29078;41.932;25.554;2023-06-14T11:32:57;99205.97;;;32.90;31.72
43488;BME280;29078;41.932;25.554;2023-06-14T11:35:23;99256.34;;;33.30;31.14
43488;BME280;29078;41.932;25.554;2023-06-14T11:37:55;99248.41;;;33.37;31.12
43488;BME280;29078;41.932;25.554;2023-06-14T11:40:24;99251.94;;;33.38;31.68
43488;BME280;29078;41.932;25.554;2023-06-14T11:42:49;99244.31;;;32.81;32.09
43488;BME280;29078;41.932;25.554;2023-06-14T11:45:15;99207.00;;;32.17;33.08
43488;BME280;29078;41.932;25.554;2023-06-14T11:47:40;99243.91;;;31.85;33.86
43488;BME280;29078;41.932;25.554;2023-06-14T11:50:08;99252.13;;;31.77;34.22
43488;BME280;29078;41.932;25.554;2023-06-14T11:52:36;99228.25;;;31.39;34.21
43488;BME280;29078;41.932;25.554;2023-06-14T11:55:03;99191.97;;;30.78;34.81
43488;BME280;29078;41.932;25.554;2023-06-14T11:57:35;99176.56;;;30.65;34.89
43488;BME280;29078;41.932;25.554;2023-06-14T12:00:09;99235.91;;;31.54;34.09
43488;BME280;29078;41.932;25.554;2023-06-14T12:02:38;99244.19;;;32.01;33.37
43488;BME280;29078;41.932;25.554;2023-06-14T12:05:05;99243.25;;;32.35;32.66
43488;BME280;29078;41.932;25.554;2023-06-14T12:07:36;99241.31;;;32.65;32.13
43488;BME280;29078;41.932;25.554;2023-06-14T12:12:28;99209.66;;;32.94;31.49
43488;BME280;29078;41.932;25.554;2023-06-14T12:14:55;99188.03;;;33.01;31.60
43488;BME280;29078;41.932;25.554;2023-06-14T12:17:22;99180.41;;;33.06;31.46
43488;BME280;29078;41.932;25.554;2023-06-14T12:19:49;99226.97;;;33.39;30.95
43488;BME280;29078;41.932;25.554;2023-06-14T12:22:16;99211.88;;;33.33;31.55
43488;BME280;29078;41.932;25.554;2023-06-14T12:24:45;99207.06;;;33.51;31.83
43488;BME280;29078;41.932;25.554;2023-06-14T12:27:11;99195.66;;;33.28;31.27
43488;BME280;29078;41.932;25.554;2023-06-14T12:29:45;99216.47;;;33.21;31.38
43488;BME280;29078;41.932;25.554;2023-06-14T12:32:11;99219.97;;;32.59;31.96
43488;BME280;29078;41.932;25.554;2023-06-14T12:34:37;99182.13;;;32.10;31.87
43488;BME280;29078;41.932;25.554;2023-06-14T12:37:02;99213.63;;;32.46;31.86
43488;BME280;29078;41.932;25.554;2023-06-14T12:39:31;99150.34;;;32.06;32.55
43488;BME280;29078;41.932;25.554;2023-06-14T12:41:58;99186.84;;;32.01;32.54
43488;BME280;29078;41.932;25.554;2023-06-14T12:44:23;99185.78;;;31.68;33.04
43488;BME280;29078;41.932;25.554;2023-06-14T12:46:49;99214.97;;;31.93;33.21
43488;BME280;29078;41.932;25.554;2023-06-14T12:49:16;99162.25;;;32.01;32.80
43488;BME280;29078;41.932;25.554;2023-06-14T12:51:42;99145.97;;;31.67;32.84
43488;BME280;29078;41.932;25.554;2023-06-14T12:54:08;99161.66;;;31.87;32.78
43488;BME280;29078;41.932;25.554;2023-06-14T12:56:34;99139.94;;;31.99;32.74
43488;BME280;29078;41.932;25.554;2023-06-14T12:58:59;99144.03;;;32.14;32.92
43488;BME280;29078;41.932;25.554;2023-06-14T13:01:24;99158.44;;;32.23;32.50
43488;BME280;29078;41.932;25.554;2023-06-14T13:03:50;99157.56;;;32.40;32.32
43488;BME280;29078;41.932;25.554;2023-06-14T13:06:20;99191.44;;;32.98;32.24
43488;BME280;29078;41.932;25.554;2023-06-14T13:08:46;99088.50;;;32.51;31.70
43488;BME280;29078;41.932;25.554;2023-06-14T13:11:11;99142.38;;;33.13;31.83
43488;BME280;29078;41.932;25.554;2023-06-14T13:13:36;99176.16;;;33.51;31.37
43488;BME280;29078;41.932;25.554;2023-06-14T13:16:02;99141.31;;;33.39;30.43